»·PEaware :: N973DM KSDM-KSEE

N973DM :: KSDM-KSEE

FLIGHT INFORMATION

Flight Status: Arrived
Operator: Privately registered:
United States
More flights under this callsign
Pilot: Anonymous 1328 (1328)
Aircraft: CIRRUS SR-20
(SR20)
More flights by this aircraft type
Origin: KSDM Brown Mun
United States
Destination: KSEE Gillespie
United States
More flights between these airports :: More routes between these airports
Route: +MZB HAILE
File this flight plan on PilotEdge
Remarks:
Altitude:
(Current/Filed)
4,500ft
Speed:
(Current/Filed)
145kts
Departed: 13-Dec-12 04:06 PM
Arrived: 13-Dec-12 04:40 PM
Distance/Time
Traveled:
15nm/0:33
Distance/Time
To Go:
Arrived

Flight Plot

Page will automatically refresh every two minutes.

Flight plan parsing failed; only flown route is shown


Map Options




Map Legend


Flown Route
Filed Route
Departure Airport
Arrival Airport
Navaid (VOR, NDB)
Fix

Horizontal Profiles

Position Reports

Time Latitude Longitude Heading Altitude Ground
Speed
13-Dec-12 15:32 32.570610 -116.984989 282 1ft 0kts
13-Dec-12 15:33 32.570610 -116.984989 282 1ft 0kts
13-Dec-12 15:34 32.570610 -116.984989 282 1ft 0kts
13-Dec-12 15:35 32.570610 -116.984989 282 1ft 0kts
13-Dec-12 15:36 32.570610 -116.984989 282 1ft 0kts
13-Dec-12 15:37 32.570610 -116.984989 282 1ft 0kts
13-Dec-12 15:38 32.570610 -116.984989 282 1ft 0kts
13-Dec-12 15:39 32.570610 -116.984989 282 1ft 0kts
13-Dec-12 15:40 32.570610 -116.984989 282 1ft 0kts
13-Dec-12 15:41 32.570610 -116.984989 282 1ft 0kts
13-Dec-12 15:42 32.570610 -116.984989 282 1ft 0kts
13-Dec-12 15:43 32.570610 -116.984989 282 1ft 0kts
13-Dec-12 15:44 32.570610 -116.984989 282 1ft 0kts
13-Dec-12 15:45 32.570610 -116.984989 282 1ft 0kts
13-Dec-12 15:46 32.570610 -116.984989 282 1ft 0kts
13-Dec-12 15:47 32.570610 -116.984989 282 1ft 0kts
13-Dec-12 15:48 32.570610 -116.984989 282 1ft 0kts
13-Dec-12 15:49 32.570610 -116.984989 282 1ft 0kts
13-Dec-12 15:50 32.570610 -116.984989 282 1ft 0kts
13-Dec-12 15:51 32.570610 -116.984989 282 1ft 0kts
13-Dec-12 15:52 32.570610 -116.984989 282 1ft 0kts
13-Dec-12 15:53 32.570610 -116.984989 282 1ft 0kts
13-Dec-12 15:54 32.570610 -116.984989 282 1ft 0kts
13-Dec-12 15:55 32.570610 -116.984989 282 1ft 0kts
13-Dec-12 15:56 32.570977 -116.985542 345 1ft 0kts
13-Dec-12 15:57 32.571159 -116.985361 57 1ft 3kts
13-Dec-12 15:58 32.570120 -116.978011 97 2ft 31kts
13-Dec-12 15:59 32.569429 -116.968956 57 2ft 0kts
13-Dec-12 16:00 32.569826 -116.968519 24 2ft 7kts
13-Dec-12 16:01 32.570731 -116.968362 12 2ft 0kts
13-Dec-12 16:02 32.570731 -116.968362 12 2ft 0kts
13-Dec-12 16:03 32.570731 -116.968362 12 2ft 0kts
13-Dec-12 16:04 32.570731 -116.968362 12 2ft 0kts
13-Dec-12 16:05 32.571784 -116.969237 272 2ft 23kts
13-Dec-12 16:06 32.572808 -116.995633 273 609ft 98kts
13-Dec-12 16:07 32.594149 -117.022258 315 1201ft 124kts
13-Dec-12 16:08 32.615073 -117.049253 295 2305ft 101kts
13-Dec-12 16:09 32.622183 -117.079353 305 2957ft 122kts
13-Dec-12 16:10 32.637707 -117.110488 293 3842ft 114kts
13-Dec-12 16:11 32.651548 -117.150022 294 4032ft 144kts
13-Dec-12 16:12 32.669910 -117.193925 296 4047ft 155kts
13-Dec-12 16:13 32.703066 -117.221209 351 4080ft 154kts
13-Dec-12 16:14 32.745822 -117.230833 353 3995ft 153kts
13-Dec-12 16:15 32.776914 -117.200343 64 3892ft 152kts
13-Dec-12 16:16 32.782628 -117.150257 96 3847ft 154kts
13-Dec-12 16:17 32.784171 -117.101168 102 4129ft 144kts
13-Dec-12 16:18 32.801742 -117.068999 359 4130ft 160kts
13-Dec-12 16:19 32.846059 -117.052793 17 3582ft 166kts
13-Dec-12 16:20 32.881627 -117.039140 17 4489ft 123kts
13-Dec-12 16:21 32.921530 -117.023767 17 4010ft 163kts
13-Dec-12 16:22 32.963298 -117.007675 17 4012ft 155kts
13-Dec-12 16:23 33.004448 -116.992650 16 4013ft 155kts
13-Dec-12 16:24 33.045694 -116.977656 16 4013ft 155kts
13-Dec-12 16:25 33.086784 -116.962698 16 4013ft 155kts
13-Dec-12 16:26 33.124620 -116.966874 288 4010ft 154kts
13-Dec-12 16:27 33.136331 -117.016201 285 4013ft 155kts
13-Dec-12 16:28 33.147813 -117.065683 279 4010ft 155kts
13-Dec-12 16:29 33.115027 -117.084910 189 4012ft 154kts
13-Dec-12 16:30 33.073966 -117.099924 198 4012ft 155kts
13-Dec-12 16:31 33.044360 -117.069885 141 4007ft 139kts
13-Dec-12 16:32 33.015680 -117.052095 158 3891ft 105kts
13-Dec-12 16:33 32.988577 -117.037138 154 3505ft 108kts
13-Dec-12 16:34 32.962294 -117.022013 175 3138ft 109kts
13-Dec-12 16:35 32.933107 -117.014154 173 2760ft 109kts
13-Dec-12 16:36 32.902523 -117.002145 158 2132ft 120kts
13-Dec-12 16:37 32.871971 -116.988036 160 1416ft 91kts
13-Dec-12 16:38 32.850854 -116.973812 157 607ft 87kts
13-Dec-12 16:39 32.827039 -116.972470 179 2ft 69kts
13-Dec-12 16:40 32.822499 -116.971834 152 2ft 0kts

Navigation Log

Ident Type
Flight plan parsing failed, navigation log unavailable